createdAt,value
2022-09-30T00:01:05.457Z,10.84
2022-09-30T00:03:31.941Z,10.81
2022-09-30T00:06:08.172Z,10.85
2022-09-30T00:08:36.511Z,10.79
2022-09-30T00:11:13.264Z,10.80
2022-09-30T00:13:40.632Z,10.72
2022-09-30T00:16:08.955Z,10.69
2022-09-30T00:18:36.700Z,10.65
2022-09-30T00:21:03.785Z,10.62
2022-09-30T00:23:30.377Z,10.60
2022-09-30T00:26:01.997Z,10.63
2022-09-30T00:28:29.335Z,10.54
2022-09-30T00:31:05.466Z,10.60
2022-09-30T00:33:32.613Z,10.52
2022-09-30T00:35:59.441Z,10.51
2022-09-30T00:38:26.134Z,10.80
2022-09-30T00:40:52.714Z,10.51
2022-09-30T00:43:41.398Z,10.61
2022-09-30T00:46:18.781Z,10.51
2022-09-30T00:48:47.573Z,10.40
2022-09-30T00:51:14.067Z,10.37
2022-09-30T00:53:54.834Z,10.43
2022-09-30T00:56:37.930Z,10.40
2022-09-30T00:59:16.722Z,10.36
2022-09-30T01:01:44.498Z,10.27
2022-09-30T01:04:20.786Z,10.25
2022-09-30T01:06:48.490Z,10.24
2022-09-30T01:09:15.138Z,10.22
2022-09-30T01:11:41.594Z,10.52
2022-09-30T01:14:10.370Z,10.28
2022-09-30T01:16:54.475Z,10.29
2022-09-30T01:19:27.148Z,10.26
2022-09-30T01:22:03.495Z,10.27
2022-09-30T01:25:00.193Z,10.29
2022-09-30T01:27:35.492Z,10.22
2022-09-30T01:30:07.612Z,10.17
2022-09-30T01:32:56.823Z,10.18
2022-09-30T01:35:30.070Z,10.16
2022-09-30T01:38:19.787Z,10.14
2022-09-30T01:41:01.315Z,10.12
2022-09-30T01:44:06.887Z,10.16
2022-09-30T01:46:46.985Z,10.03
2022-09-30T01:49:19.482Z,10.03
2022-09-30T01:52:01.896Z,10.06
2022-09-30T01:54:34.304Z,9.94
2022-09-30T01:57:11.540Z,9.98
2022-09-30T01:59:46.007Z,9.95
2022-09-30T02:02:21.535Z,9.92
2022-09-30T02:05:05.935Z,9.89
2022-09-30T02:07:45.517Z,9.90
2022-09-30T02:10:19.148Z,9.85
2022-09-30T02:13:13.115Z,9.91
2022-09-30T02:15:47.070Z,9.81
2022-09-30T02:18:27.664Z,9.81
2022-09-30T02:21:00.513Z,9.76
2022-09-30T02:23:32.565Z,9.74
2022-09-30T02:26:10.680Z,9.75
2022-09-30T02:28:44.267Z,9.72
2022-09-30T02:31:13.522Z,9.68
2022-09-30T02:33:46.092Z,9.70
2022-09-30T02:36:42.371Z,9.70
2022-09-30T02:39:16.373Z,9.68
2022-09-30T02:41:52.126Z,9.65
2022-09-30T02:44:19.705Z,9.57
2022-09-30T02:47:00.370Z,9.56
2022-09-30T02:49:39.504Z,9.58
2022-09-30T02:52:21.408Z,9.56
2022-09-30T02:55:02.606Z,9.52
2022-09-30T02:57:54.249Z,9.48
2022-09-30T03:00:20.757Z,9.41
2022-09-30T03:02:47.296Z,9.38
2022-09-30T03:05:14.264Z,9.37
2022-09-30T03:07:40.912Z,9.34
2022-09-30T03:10:18.021Z,9.41
2022-09-30T03:12:52.257Z,9.39
2022-09-30T03:15:41.648Z,9.36
2022-09-30T03:18:19.809Z,9.37
2022-09-30T03:21:07.840Z,9.35
2022-09-30T03:23:56.286Z,9.25
2022-09-30T03:26:36.301Z,9.29
2022-09-30T03:29:26.021Z,9.21
2022-09-30T03:32:26.356Z,9.30
2022-09-30T03:35:17.501Z,9.27
2022-09-30T03:37:54.442Z,9.19
2022-09-30T03:40:33.190Z,9.14
2022-09-30T03:43:19.181Z,9.15
2022-09-30T03:45:53.001Z,9.08
2022-09-30T03:48:22.032Z,9.01
2022-09-30T03:50:48.873Z,8.97
2022-09-30T03:53:16.470Z,9.25
2022-09-30T03:55:52.912Z,9.08
2022-09-30T03:58:23.375Z,8.99
2022-09-30T04:00:52.885Z,8.96
2022-09-30T04:03:21.434Z,8.94
2022-09-30T04:05:48.566Z,8.92
2022-09-30T04:08:15.682Z,8.91
2022-09-30T04:10:43.926Z,8.92
2022-09-30T04:13:11.122Z,8.90
2022-09-30T04:15:37.789Z,8.90
2022-09-30T04:18:05.242Z,8.90
2022-09-30T04:20:32.697Z,8.88
2022-09-30T04:23:00.783Z,8.89
2022-09-30T04:25:28.178Z,8.93
2022-09-30T04:27:55.354Z,9.07
2022-09-30T04:30:25.613Z,9.33
2022-09-30T04:32:53.903Z,9.65
2022-09-30T04:35:20.506Z,9.99
2022-09-30T04:37:47.546Z,10.33
2022-09-30T04:40:15.639Z,10.67
2022-09-30T04:42:43.211Z,11.01
2022-09-30T04:45:13.814Z,11.35
2022-09-30T04:47:45.375Z,11.65
2022-09-30T04:50:12.146Z,11.85
2022-09-30T04:52:42.336Z,12.10
2022-09-30T04:55:09.891Z,12.28
2022-09-30T04:57:36.643Z,12.46
2022-09-30T05:00:03.865Z,12.86
2022-09-30T05:02:30.339Z,12.84
2022-09-30T05:04:56.899Z,12.98
2022-09-30T05:07:26.862Z,13.17
2022-09-30T05:09:53.499Z,13.28
2022-09-30T05:12:19.903Z,13.66
2022-09-30T05:14:46.315Z,13.54
2022-09-30T05:17:14.380Z,13.56
2022-09-30T05:19:43.283Z,13.51
2022-09-30T05:22:09.731Z,13.42
2022-09-30T05:24:36.143Z,13.32
2022-09-30T05:27:03.012Z,13.18
2022-09-30T05:29:29.731Z,12.97
2022-09-30T05:31:56.097Z,13.18
2022-09-30T05:34:22.853Z,12.64
2022-09-30T05:36:49.203Z,12.83
2022-09-30T05:39:15.939Z,12.28
2022-09-30T05:41:42.301Z,12.45
2022-09-30T05:44:09.272Z,11.91
2022-09-30T05:46:35.959Z,11.71
2022-09-30T05:49:02.329Z,11.91
2022-09-30T05:51:28.780Z,11.44
2022-09-30T05:53:55.217Z,11.30
2022-09-30T05:56:21.696Z,11.17
2022-09-30T05:58:48.140Z,11.06
2022-09-30T06:01:15.792Z,10.98
2022-09-30T06:03:48.497Z,10.91
2022-09-30T06:06:15.911Z,10.79
2022-09-30T06:08:43.551Z,10.74
2022-09-30T06:11:12.850Z,10.71
2022-09-30T06:13:40.665Z,10.61
2022-09-30T06:16:08.086Z,10.57
2022-09-30T06:18:34.906Z,10.52
2022-09-30T06:21:05.392Z,10.79
2022-09-30T06:23:37.843Z,10.54
2022-09-30T06:26:06.767Z,10.46
2022-09-30T06:28:36.155Z,10.45
2022-09-30T06:31:05.804Z,10.50
2022-09-30T06:33:32.690Z,10.49
2022-09-30T06:35:59.793Z,10.52
2022-09-30T06:38:28.734Z,10.56
2022-09-30T06:40:55.871Z,10.59
2022-09-30T06:43:22.279Z,10.64
2022-09-30T06:45:51.840Z,10.70
2022-09-30T06:48:28.638Z,10.77
2022-09-30T06:51:02.103Z,10.84
2022-09-30T06:53:29.380Z,10.91
2022-09-30T06:55:58.890Z,11.02
2022-09-30T06:58:25.678Z,11.04
2022-09-30T07:01:03.736Z,11.35
2022-09-30T07:03:35.586Z,11.28
2022-09-30T07:06:04.928Z,11.29
2022-09-30T07:08:32.687Z,11.38
2022-09-30T07:11:01.535Z,11.48
2022-09-30T07:13:28.386Z,11.60
2022-09-30T07:15:56.593Z,11.72
2022-09-30T07:18:28.678Z,11.85
2022-09-30T07:20:56.366Z,11.95
2022-09-30T07:23:27.192Z,12.07
2022-09-30T07:26:00.404Z,12.20
2022-09-30T07:28:32.097Z,12.32
2022-09-30T07:31:27.945Z,12.45
2022-09-30T07:33:52.359Z,12.59
2022-09-30T07:36:31.844Z,12.71
2022-09-30T07:38:59.477Z,12.79
2022-09-30T07:41:29.018Z,12.89
2022-09-30T07:43:57.351Z,12.97
2022-09-30T07:46:27.718Z,13.08
2022-09-30T07:48:57.476Z,13.16
2022-09-30T07:51:35.762Z,13.30
2022-09-30T07:54:08.285Z,13.37
2022-09-30T07:57:05.160Z,13.46
2022-09-30T07:59:26.104Z,13.58
2022-09-30T08:01:53.150Z,13.69
2022-09-30T08:04:21.141Z,13.81
2022-09-30T08:06:57.487Z,13.94
2022-09-30T08:09:25.679Z,14.01
2022-09-30T08:11:52.590Z,14.11
2022-09-30T08:14:22.415Z,14.22
2022-09-30T08:16:49.722Z,14.30
2022-09-30T08:19:19.672Z,14.42
2022-09-30T08:21:46.767Z,14.49
2022-09-30T08:24:19.158Z,14.66
2022-09-30T08:26:45.756Z,14.70
2022-09-30T08:29:20.329Z,15.01
2022-09-30T08:31:52.318Z,14.93
2022-09-30T08:34:19.008Z,14.98
2022-09-30T08:36:46.664Z,15.28
2022-09-30T08:39:13.465Z,15.17
2022-09-30T08:41:49.387Z,15.45
2022-09-30T08:44:33.974Z,15.41
2022-09-30T08:47:28.140Z,15.48
2022-09-30T08:50:10.646Z,15.55
2022-09-30T08:52:48.823Z,15.61
2022-09-30T08:55:29.115Z,15.77
2022-09-30T08:57:56.859Z,15.81
2022-09-30T09:00:24.996Z,15.90
2022-09-30T09:02:56.086Z,16.03
2022-09-30T09:05:39.247Z,16.21
2022-09-30T09:08:19.763Z,16.31
2022-09-30T09:10:53.815Z,16.36
2022-09-30T09:13:50.151Z,16.54
2022-09-30T09:16:43.850Z,16.60
2022-09-30T09:19:15.466Z,16.69
2022-09-30T09:22:09.640Z,16.87
2022-09-30T09:24:48.640Z,16.92
2022-09-30T09:27:27.082Z,17.04
2022-09-30T09:30:07.694Z,17.14
2022-09-30T09:32:35.772Z,17.20
2022-09-30T09:35:16.884Z,17.36
2022-09-30T09:38:14.544Z,17.46
2022-09-30T09:40:57.540Z,17.59
2022-09-30T09:43:29.460Z,17.71
2022-09-30T09:46:05.402Z,17.83
2022-09-30T09:48:35.460Z,17.88
2022-09-30T09:51:13.140Z,18.02
2022-09-30T09:53:49.997Z,18.14
2022-09-30T09:56:19.289Z,18.19
2022-09-30T09:59:10.245Z,18.32
2022-09-30T10:01:46.155Z,18.32
2022-09-30T10:04:17.956Z,18.39
2022-09-30T10:06:56.067Z,18.48
2022-09-30T10:09:22.554Z,18.49
2022-09-30T10:11:48.941Z,18.78
2022-09-30T10:14:21.719Z,18.67
2022-09-30T10:16:48.874Z,18.68
2022-09-30T10:19:22.758Z,18.79
2022-09-30T10:21:51.830Z,18.82
2022-09-30T10:24:28.965Z,18.94
2022-09-30T10:26:56.008Z,18.98
2022-09-30T10:29:29.742Z,19.11
2022-09-30T10:32:00.041Z,19.19
2022-09-30T10:34:28.705Z,19.28
2022-09-30T10:36:56.985Z,19.37
2022-09-30T10:39:32.099Z,19.52
2022-09-30T10:42:25.973Z,19.67
2022-09-30T10:44:56.133Z,19.70
2022-09-30T10:47:31.329Z,19.78
2022-09-30T10:50:08.900Z,19.86
2022-09-30T10:52:39.694Z,19.89
2022-09-30T10:55:14.647Z,19.91
2022-09-30T10:57:43.284Z,19.95
2022-09-30T11:00:12.749Z,20.25
2022-09-30T11:02:55.064Z,20.15
2022-09-30T11:05:24.901Z,20.12
2022-09-30T11:08:14.404Z,20.19
2022-09-30T11:10:47.264Z,20.23
2022-09-30T11:13:20.330Z,20.22
2022-09-30T11:16:09.028Z,20.33
2022-09-30T11:18:47.715Z,20.40
2022-09-30T11:21:22.635Z,20.45
2022-09-30T11:23:57.243Z,20.51
2022-09-30T11:26:50.495Z,20.62
2022-09-30T11:29:52.568Z,20.70
2022-09-30T11:32:49.919Z,20.79
2022-09-30T11:35:35.198Z,20.84
2022-09-30T11:38:21.784Z,20.81
2022-09-30T11:41:18.335Z,20.91
2022-09-30T11:44:03.441Z,20.91
2022-09-30T11:46:35.175Z,21.02
2022-09-30T11:49:25.680Z,21.11
2022-09-30T11:52:22.727Z,21.20
2022-09-30T11:54:49.155Z,21.19
2022-09-30T11:57:29.217Z,21.48
2022-09-30T12:00:04.919Z,21.39
2022-09-30T12:02:38.108Z,21.41
2022-09-30T12:05:11.923Z,21.46
2022-09-30T12:07:38.572Z,21.48
2022-09-30T12:10:16.544Z,21.58
2022-09-30T12:12:44.171Z,21.62
2022-09-30T12:15:16.403Z,21.71
2022-09-30T12:17:50.607Z,21.78
2022-09-30T12:20:26.100Z,21.82
2022-09-30T12:22:59.020Z,21.81
2022-09-30T12:25:31.469Z,21.85
2022-09-30T12:28:32.711Z,21.88
2022-09-30T12:31:19.307Z,21.84
2022-09-30T12:34:05.188Z,21.90
2022-09-30T12:37:02.515Z,21.94
2022-09-30T12:39:53.484Z,22.07
2022-09-30T12:42:39.312Z,22.12
2022-09-30T12:45:30.384Z,22.24
2022-09-30T12:48:00.126Z,22.28
2022-09-30T12:50:45.279Z,22.39
2022-09-30T12:53:24.329Z,22.40
2022-09-30T12:55:51.907Z,22.40
2022-09-30T12:58:30.496Z,22.47
2022-09-30T13:01:12.571Z,22.50
2022-09-30T13:03:51.595Z,22.57
2022-09-30T13:06:21.301Z,22.58
2022-09-30T13:09:06.375Z,22.62
2022-09-30T13:11:44.266Z,22.77
2022-09-30T13:14:33.013Z,22.88
2022-09-30T13:17:25.536Z,22.96
2022-09-30T13:19:54.304Z,22.91
2022-09-30T13:22:29.911Z,22.90
2022-09-30T13:25:05.248Z,22.95
2022-09-30T13:27:35.519Z,22.91
2022-09-30T13:30:15.654Z,22.82
2022-09-30T13:32:47.724Z,22.79
2022-09-30T13:35:51.557Z,22.82
2022-09-30T13:38:20.333Z,22.58
2022-09-30T13:41:03.091Z,22.49
2022-09-30T13:43:50.983Z,22.49
2022-09-30T13:46:43.668Z,22.54
2022-09-30T13:49:21.193Z,22.43
2022-09-30T13:51:48.689Z,22.31
2022-09-30T13:54:34.126Z,22.39
2022-09-30T13:57:02.469Z,22.27
2022-09-30T13:59:38.017Z,22.31
2022-09-30T14:02:32.865Z,22.18
2022-09-30T14:05:20.595Z,22.14
2022-09-30T14:07:49.824Z,22.05
2022-09-30T14:10:32.103Z,22.00
2022-09-30T14:13:11.757Z,21.97
2022-09-30T14:16:15.910Z,21.98
2022-09-30T14:19:16.314Z,21.90
2022-09-30T14:21:50.401Z,21.84
2022-09-30T14:24:24.044Z,21.83
2022-09-30T14:27:21.080Z,21.89
2022-09-30T14:29:56.126Z,21.84
2022-09-30T14:32:40.930Z,21.97
2022-09-30T14:35:09.351Z,21.93
2022-09-30T14:37:42.961Z,21.99
2022-09-30T14:40:12.380Z,21.96
2022-09-30T14:42:41.361Z,21.93
2022-09-30T14:45:09.446Z,21.88
2022-09-30T14:47:40.549Z,21.87
2022-09-30T14:50:16.267Z,21.84
2022-09-30T14:52:45.321Z,21.73
2022-09-30T14:55:27.986Z,21.80
2022-09-30T14:58:17.102Z,21.70
2022-09-30T15:00:47.717Z,21.70
2022-09-30T15:03:14.412Z,21.69
2022-09-30T15:05:41.387Z,21.64
2022-09-30T15:08:16.793Z,21.66
2022-09-30T15:10:51.998Z,21.62
2022-09-30T15:13:21.906Z,21.52
2022-09-30T15:15:48.631Z,21.48
2022-09-30T15:18:43.050Z,21.57
2022-09-30T15:21:15.783Z,21.50
2022-09-30T15:23:47.906Z,21.45
2022-09-30T15:26:15.298Z,21.33
2022-09-30T15:28:41.971Z,21.27
2022-09-30T15:31:23.722Z,21.32
2022-09-30T15:34:01.768Z,21.29
2022-09-30T15:36:28.728Z,21.15
2022-09-30T15:38:55.383Z,21.13
2022-09-30T15:41:22.174Z,21.13
2022-09-30T15:43:51.696Z,21.13
2022-09-30T15:46:33.810Z,21.24
2022-09-30T15:49:02.542Z,21.16
2022-09-30T15:51:30.474Z,21.17
2022-09-30T15:54:02.640Z,21.17
2022-09-30T15:56:30.884Z,21.14
2022-09-30T15:59:11.361Z,21.25
2022-09-30T16:01:45.611Z,21.22
2022-09-30T16:04:23.052Z,21.24
2022-09-30T16:07:09.946Z,21.27
2022-09-30T16:09:39.396Z,21.15
2022-09-30T16:12:11.827Z,21.14
2022-09-30T16:14:49.048Z,21.12
2022-09-30T16:17:21.064Z,21.07
2022-09-30T16:20:08.725Z,21.08
2022-09-30T16:22:41.259Z,21.01
2022-09-30T16:25:11.028Z,20.95
2022-09-30T16:27:38.271Z,20.84
2022-09-30T16:30:06.692Z,20.80
2022-09-30T16:32:37.504Z,20.77
2022-09-30T16:35:05.796Z,20.64
2022-09-30T16:37:32.268Z,20.57
2022-09-30T16:40:02.033Z,20.91
2022-09-30T16:42:28.500Z,20.47
2022-09-30T16:44:55.999Z,20.39
2022-09-30T16:47:22.471Z,20.27
2022-09-30T16:49:51.156Z,20.61
2022-09-30T16:52:17.656Z,20.15
2022-09-30T16:54:43.996Z,20.47
2022-09-30T16:57:13.205Z,20.04
2022-09-30T16:59:39.658Z,19.88
2022-09-30T17:02:06.097Z,19.80
2022-09-30T17:04:33.322Z,19.71
2022-09-30T17:07:02.753Z,19.61
2022-09-30T17:09:29.273Z,19.53
2022-09-30T17:11:55.656Z,19.91
2022-09-30T17:14:22.277Z,19.45
2022-09-30T17:16:48.810Z,19.34
2022-09-30T17:19:15.301Z,19.69
2022-09-30T17:21:41.741Z,19.25
2022-09-30T17:24:08.301Z,19.15
2022-09-30T17:26:35.049Z,19.48
2022-09-30T17:29:30.925Z,19.06
2022-09-30T17:31:49.755Z,18.94
2022-09-30T17:34:16.246Z,19.28
2022-09-30T17:36:42.924Z,18.83
2022-09-30T17:39:11.412Z,18.72
2022-09-30T17:41:56.630Z,18.65
2022-09-30T17:44:24.489Z,18.57
2022-09-30T17:47:00.319Z,18.49
2022-09-30T17:49:34.973Z,18.50
2022-09-30T17:52:02.279Z,18.37
2022-09-30T17:54:29.254Z,18.28
2022-09-30T17:56:57.152Z,18.20
2022-09-30T17:59:26.000Z,18.15
2022-09-30T18:01:53.645Z,18.07
2022-09-30T18:04:21.922Z,18.01
2022-09-30T18:06:48.411Z,17.94
2022-09-30T18:09:15.176Z,17.88
2022-09-30T18:11:43.625Z,17.80
2022-09-30T18:14:11.731Z,17.71
2022-09-30T18:16:39.022Z,17.62
2022-09-30T18:19:07.187Z,17.53
2022-09-30T18:21:36.248Z,17.47
2022-09-30T18:24:03.886Z,17.36
2022-09-30T18:26:33.490Z,17.28
2022-09-30T18:29:04.382Z,17.21
2022-09-30T18:31:38.661Z,17.14
2022-09-30T18:34:06.615Z,17.09
2022-09-30T18:36:33.111Z,17.04
2022-09-30T18:39:02.082Z,17.01
2022-09-30T18:41:30.669Z,16.95
2022-09-30T18:44:02.921Z,16.93
2022-09-30T18:46:30.925Z,16.89
2022-09-30T18:48:58.183Z,16.84
2022-09-30T18:51:25.224Z,16.80
2022-09-30T18:53:57.719Z,16.78
2022-09-30T18:56:32.308Z,16.80
2022-09-30T19:01:34.761Z,16.64
2022-09-30T19:04:04.569Z,16.62
2022-09-30T19:06:31.364Z,16.53
2022-09-30T19:08:57.929Z,16.48
2022-09-30T19:11:24.993Z,16.84
2022-09-30T19:13:52.909Z,16.47
2022-09-30T19:16:19.895Z,16.40
2022-09-30T19:18:46.779Z,16.33
2022-09-30T19:21:16.153Z,16.29
2022-09-30T19:23:42.580Z,16.25
2022-09-30T19:26:10.885Z,16.23
2022-09-30T19:28:39.948Z,16.18
2022-09-30T19:31:16.923Z,16.20
2022-09-30T19:33:55.890Z,16.13
2022-09-30T19:36:24.157Z,16.06
2022-09-30T19:38:55.097Z,16.03
2022-09-30T19:41:30.793Z,15.99
2022-09-30T19:44:01.245Z,15.94
2022-09-30T19:46:28.898Z,15.91
2022-09-30T19:48:56.318Z,15.89
2022-09-30T19:51:23.186Z,15.86
2022-09-30T19:54:03.522Z,15.82
2022-09-30T19:56:33.969Z,15.79
2022-09-30T19:59:03.304Z,15.80
2022-09-30T20:01:30.529Z,15.72
2022-09-30T20:04:00.186Z,15.68
2022-09-30T20:06:28.155Z,15.63
2022-09-30T20:09:00.301Z,15.64
2022-09-30T20:11:28.902Z,15.57
2022-09-30T20:14:15.474Z,15.54
2022-09-30T20:16:43.654Z,15.49
2022-09-30T20:19:11.368Z,15.45
2022-09-30T20:21:38.531Z,15.39
2022-09-30T21:36:05.640Z,14.63
2022-09-30T21:38:33.889Z,14.55
2022-09-30T21:41:03.156Z,14.50
2022-09-30T21:43:34.212Z,14.51
2022-09-30T21:46:02.999Z,14.43
2022-09-30T21:48:30.581Z,14.44
2022-09-30T21:50:57.639Z,14.41
2022-09-30T21:53:28.208Z,14.42
2022-09-30T21:55:56.188Z,14.42
2022-09-30T21:58:27.732Z,14.48
2022-09-30T22:00:58.376Z,14.48
2022-09-30T22:03:25.008Z,14.49
2022-09-30T22:05:53.396Z,14.52
2022-09-30T22:08:21.356Z,14.53
2022-09-30T22:10:49.046Z,14.57
2022-09-30T22:13:16.538Z,14.57
2022-09-30T22:15:44.845Z,14.60
2022-09-30T22:18:19.852Z,14.69
2022-09-30T22:20:47.966Z,14.64
2022-09-30T22:23:15.121Z,14.63
2022-09-30T22:25:42.018Z,14.64
2022-09-30T22:28:08.692Z,14.63
2022-09-30T22:30:35.475Z,14.96
2022-09-30T22:33:20.830Z,14.68
2022-09-30T22:36:06.145Z,14.64
2022-09-30T22:38:32.777Z,14.64
2022-09-30T22:40:59.740Z,14.95
2022-09-30T22:43:27.270Z,14.66
2022-09-30T22:46:05.118Z,14.71
2022-09-30T22:48:32.534Z,14.65
2022-09-30T22:50:59.524Z,14.64
2022-09-30T22:53:27.309Z,14.64
2022-09-30T22:55:56.338Z,14.64
2022-09-30T22:58:26.745Z,14.63
2022-09-30T23:00:56.862Z,14.65
2022-09-30T23:03:25.646Z,14.66
2022-09-30T23:05:59.281Z,14.66
2022-09-30T23:08:30.395Z,14.71
2022-09-30T23:10:57.627Z,14.66
2022-09-30T23:13:24.333Z,14.67
2022-09-30T23:15:56.978Z,14.97
2022-09-30T23:18:23.526Z,14.70
2022-09-30T23:20:59.538Z,14.73
2022-09-30T23:23:26.303Z,14.66
2022-09-30T23:26:03.404Z,14.72
2022-09-30T23:28:30.518Z,14.66
2022-09-30T23:31:05.186Z,14.67
2022-09-30T23:33:31.841Z,14.64
2022-09-30T23:36:01.397Z,14.96
2022-09-30T23:38:28.699Z,14.69
2022-09-30T23:40:59.210Z,14.65
2022-09-30T23:43:31.380Z,14.69
2022-09-30T23:45:58.773Z,14.64
2022-09-30T23:48:28.312Z,14.67
2022-09-30T23:50:58.146Z,14.67
2022-09-30T23:53:25.134Z,14.60
2022-09-30T23:56:03.959Z,14.64
2022-09-30T23:58:32.242Z,14.57
